sensor_id;sensor_type;location;lat;lon;timestamp;pressure;altitude;pressure_sealevel;temperature;humidity
32083;BME280;18597;48.328;7.932;2022-10-03T00:00:17;100349.88;;;12.88;100.00
32083;BME280;18597;48.328;7.932;2022-10-03T00:06:10;100352.28;;;12.91;100.00
32083;BME280;18597;48.328;7.932;2022-10-03T00:08:55;100352.88;;;12.95;100.00
32083;BME280;18597;48.328;7.932;2022-10-03T00:15:10;100369.84;;;12.95;100.00
32083;BME280;18597;48.328;7.932;2022-10-03T00:18:16;100375.91;;;12.97;100.00
32083;BME280;18597;48.328;7.932;2022-10-03T00:20:59;100374.69;;;13.01;100.00
32083;BME280;18597;48.328;7.932;2022-10-03T00:24:14;100368.13;;;12.94;100.00
32083;BME280;18597;48.328;7.932;2022-10-03T00:27:38;100376.69;;;12.88;100.00
32083;BME280;18597;48.328;7.932;2022-10-03T00:30:19;100379.63;;;12.85;100.00
32083;BME280;18597;48.328;7.932;2022-10-03T00:33:18;100375.97;;;12.86;100.00
32083;BME280;18597;48.328;7.932;2022-10-03T00:39:35;100378.59;;;12.65;100.00
32083;BME280;18597;48.328;7.932;2022-10-03T00:42:12;100357.56;;;12.49;100.00
32083;BME280;18597;48.328;7.932;2022-10-03T00:45:31;100364.41;;;12.31;100.00
32083;BME280;18597;48.328;7.932;2022-10-03T00:48:36;100363.56;;;12.08;100.00
32083;BME280;18597;48.328;7.932;2022-10-03T00:57:45;100397.97;;;11.68;100.00
32083;BME280;18597;48.328;7.932;2022-10-03T01:00:30;100399.69;;;11.69;100.00
32083;BME280;18597;48.328;7.932;2022-10-03T01:18:26;100432.53;;;11.71;100.00
32083;BME280;18597;48.328;7.932;2022-10-03T01:21:30;100432.91;;;11.66;100.00
32083;BME280;18597;48.328;7.932;2022-10-03T01:24:46;100426.56;;;11.67;100.00
32083;BME280;18597;48.328;7.932;2022-10-03T01:27:29;100421.56;;;11.63;100.00
32083;BME280;18597;48.328;7.932;2022-10-03T01:30:00;100431.03;;;11.56;100.00
32083;BME280;18597;48.328;7.932;2022-10-03T01:35:55;100433.94;;;11.42;100.00
32083;BME280;18597;48.328;7.932;2022-10-03T01:38:33;100439.50;;;11.38;100.00
32083;BME280;18597;48.328;7.932;2022-10-03T01:44:40;100441.97;;;11.18;100.00
32083;BME280;18597;48.328;7.932;2022-10-03T01:47:49;100456.31;;;11.17;100.00
32083;BME280;18597;48.328;7.932;2022-10-03T01:50:36;100457.56;;;11.24;100.00
32083;BME280;18597;48.328;7.932;2022-10-03T01:53:22;100450.47;;;11.35;100.00
32083;BME280;18597;48.328;7.932;2022-10-03T01:55:59;100443.16;;;11.37;100.00
32083;BME280;18597;48.328;7.932;2022-10-03T01:58:59;100446.69;;;11.38;100.00
32083;BME280;18597;48.328;7.932;2022-10-03T02:01:47;100448.66;;;11.47;100.00
32083;BME280;18597;48.328;7.932;2022-10-03T02:04:55;100457.94;;;11.54;100.00
32083;BME280;18597;48.328;7.932;2022-10-03T02:11:01;100445.56;;;11.64;100.00
32083;BME280;18597;48.328;7.932;2022-10-03T02:13:52;100450.19;;;11.74;100.00
32083;BME280;18597;48.328;7.932;2022-10-03T02:19:43;100454.00;;;11.82;100.00
32083;BME280;18597;48.328;7.932;2022-10-03T02:22:27;100450.16;;;11.86;100.00
32083;BME280;18597;48.328;7.932;2022-10-03T02:25:30;100454.75;;;11.84;100.00
32083;BME280;18597;48.328;7.932;2022-10-03T02:29:19;100451.00;;;11.98;100.00
32083;BME280;18597;48.328;7.932;2022-10-03T02:31:42;100450.66;;;12.03;100.00
32083;BME280;18597;48.328;7.932;2022-10-03T02:40:55;100444.69;;;12.10;100.00
32083;BME280;18597;48.328;7.932;2022-10-03T03:00:30;100431.13;;;12.01;100.00
32083;BME280;18597;48.328;7.932;2022-10-03T03:03:28;100427.53;;;12.02;100.00
32083;BME280;18597;48.328;7.932;2022-10-03T03:23:22;100434.56;;;11.80;100.00
32083;BME280;18597;48.328;7.932;2022-10-03T03:31:13;100427.44;;;11.68;100.00
32083;BME280;18597;48.328;7.932;2022-10-03T03:39:57;100423.31;;;11.64;100.00
32083;BME280;18597;48.328;7.932;2022-10-03T03:52:04;100430.28;;;11.07;100.00
32083;BME280;18597;48.328;7.932;2022-10-03T03:58:46;100436.97;;;10.65;100.00
32083;BME280;18597;48.328;7.932;2022-10-03T04:01:56;100433.38;;;10.53;100.00
32083;BME280;18597;48.328;7.932;2022-10-03T04:05:11;100440.56;;;10.53;100.00
32083;BME280;18597;48.328;7.932;2022-10-03T04:16:51;100457.34;;;11.03;100.00
32083;BME280;18597;48.328;7.932;2022-10-03T04:19:59;100459.94;;;11.04;100.00
32083;BME280;18597;48.328;7.932;2022-10-03T04:31:19;100464.22;;;11.18;100.00
32083;BME280;18597;48.328;7.932;2022-10-03T04:34:15;100463.00;;;11.11;100.00
32083;BME280;18597;48.328;7.932;2022-10-03T04:37:30;100463.38;;;10.94;100.00
32083;BME280;18597;48.328;7.932;2022-10-03T04:43:48;100471.38;;;11.06;100.00
32083;BME280;18597;48.328;7.932;2022-10-03T04:46:29;100471.94;;;10.99;100.00
32083;BME280;18597;48.328;7.932;2022-10-03T04:49:41;100472.91;;;10.98;100.00
32083;BME280;18597;48.328;7.932;2022-10-03T04:52:41;100465.25;;;10.80;100.00
32083;BME280;18597;48.328;7.932;2022-10-03T04:57:55;100467.69;;;10.47;100.00
32083;BME280;18597;48.328;7.932;2022-10-03T05:00:46;100469.66;;;10.32;100.00
32083;BME280;18597;48.328;7.932;2022-10-03T05:09:41;100471.56;;;10.17;100.00
32083;BME280;18597;48.328;7.932;2022-10-03T05:15:40;100484.91;;;10.05;100.00
32083;BME280;18597;48.328;7.932;2022-10-03T05:18:44;100486.09;;;10.00;100.00
32083;BME280;18597;48.328;7.932;2022-10-03T05:21:30;100489.81;;;10.11;100.00
32083;BME280;18597;48.328;7.932;2022-10-03T05:27:22;100490.78;;;10.10;100.00
32083;BME280;18597;48.328;7.932;2022-10-03T05:30:24;100500.19;;;10.15;100.00
32083;BME280;18597;48.328;7.932;2022-10-03T05:33:12;100500.53;;;10.23;100.00
32083;BME280;18597;48.328;7.932;2022-10-03T05:48:18;100513.00;;;10.10;100.00
32083;BME280;18597;48.328;7.932;2022-10-03T05:51:28;100513.00;;;10.10;100.00
32083;BME280;18597;48.328;7.932;2022-10-03T06:00:37;100539.75;;;10.23;100.00
32083;BME280;18597;48.328;7.932;2022-10-03T06:10:41;100546.03;;;10.60;100.00
32083;BME280;18597;48.328;7.932;2022-10-03T06:13:20;100552.53;;;10.69;100.00
32083;BME280;18597;48.328;7.932;2022-10-03T06:16:12;100556.06;;;10.69;100.00
32083;BME280;18597;48.328;7.932;2022-10-03T06:22:57;100557.41;;;10.88;100.00
32083;BME280;18597;48.328;7.932;2022-10-03T06:26:15;100557.50;;;10.86;100.00
32083;BME280;18597;48.328;7.932;2022-10-03T06:32:48;100553.94;;;11.11;100.00
32083;BME280;18597;48.328;7.932;2022-10-03T06:58:00;100531.88;;;24.61;100.00
32083;BME280;18597;48.328;7.932;2022-10-03T07:04:21;100533.75;;;28.78;55.72
32083;BME280;18597;48.328;7.932;2022-10-03T07:10:30;100527.00;;;26.98;46.36
32083;BME280;18597;48.328;7.932;2022-10-03T07:23:25;100532.00;;;32.79;30.25
32083;BME280;18597;48.328;7.932;2022-10-03T07:30:14;100524.88;;;33.76;29.06
32083;BME280;18597;48.328;7.932;2022-10-03T07:42:55;100543.44;;;35.24;26.10
32083;BME280;18597;48.328;7.932;2022-10-03T07:45:30;100539.19;;;35.99;24.80
32083;BME280;18597;48.328;7.932;2022-10-03T07:54:58;100527.94;;;35.43;24.22
32083;BME280;18597;48.328;7.932;2022-10-03T07:58:17;100534.84;;;31.66;29.18
32083;BME280;18597;48.328;7.932;2022-10-03T08:04:33;100527.19;;;24.83;41.04
32083;BME280;18597;48.328;7.932;2022-10-03T08:10:55;100535.81;;;21.20;50.57
32083;BME280;18597;48.328;7.932;2022-10-03T08:21:00;100530.19;;;19.03;63.95
32083;BME280;18597;48.328;7.932;2022-10-03T08:23:46;100528.00;;;18.39;69.25
32083;BME280;18597;48.328;7.932;2022-10-03T08:27:22;100533.28;;;17.96;70.80
32083;BME280;18597;48.328;7.932;2022-10-03T08:38:56;100522.53;;;16.51;81.29
32083;BME280;18597;48.328;7.932;2022-10-03T08:42:17;100524.34;;;16.13;87.14
32083;BME280;18597;48.328;7.932;2022-10-03T08:45:34;100530.28;;;16.17;88.82
32083;BME280;18597;48.328;7.932;2022-10-03T08:48:54;100532.53;;;16.21;89.49
32083;BME280;18597;48.328;7.932;2022-10-03T08:55:02;100517.44;;;16.48;89.89
32083;BME280;18597;48.328;7.932;2022-10-03T08:58:23;100521.06;;;16.19;85.93
32083;BME280;18597;48.328;7.932;2022-10-03T09:01:30;100531.44;;;16.04;89.39
32083;BME280;18597;48.328;7.932;2022-10-03T09:07:42;100527.59;;;15.49;92.06
32083;BME280;18597;48.328;7.932;2022-10-03T09:10:59;100523.69;;;15.63;93.96
32083;BME280;18597;48.328;7.932;2022-10-03T09:20:18;100534.69;;;15.31;91.01
32083;BME280;18597;48.328;7.932;2022-10-03T09:35:55;100539.25;;;16.17;84.66
32083;BME280;18597;48.328;7.932;2022-10-03T09:51:34;100545.47;;;17.65;74.53
32083;BME280;18597;48.328;7.932;2022-10-03T09:54:49;100545.88;;;17.70;71.46
32083;BME280;18597;48.328;7.932;2022-10-03T09:57:48;100535.75;;;17.90;67.91
32083;BME280;18597;48.328;7.932;2022-10-03T10:00:25;100525.34;;;18.21;73.47
32083;BME280;18597;48.328;7.932;2022-10-03T10:10:35;100518.75;;;18.75;67.28
32083;BME280;18597;48.328;7.932;2022-10-03T10:17:07;100526.41;;;19.38;62.11
32083;BME280;18597;48.328;7.932;2022-10-03T10:35:53;100517.91;;;19.33;70.75
32083;BME280;18597;48.328;7.932;2022-10-03T10:39:16;100506.25;;;19.49;70.21
32083;BME280;18597;48.328;7.932;2022-10-03T10:42:41;100514.72;;;19.46;70.53
32083;BME280;18597;48.328;7.932;2022-10-03T10:45:33;100511.84;;;19.56;71.38
32083;BME280;18597;48.328;7.932;2022-10-03T10:52:13;100508.50;;;19.70;69.18
32083;BME280;18597;48.328;7.932;2022-10-03T11:27:29;100478.50;;;19.72;70.92
32083;BME280;18597;48.328;7.932;2022-10-03T11:30:26;100476.16;;;19.77;72.41
32083;BME280;18597;48.328;7.932;2022-10-03T11:39:18;100475.47;;;19.91;70.70
32083;BME280;18597;48.328;7.932;2022-10-03T11:42:25;100472.22;;;19.87;70.91
32083;BME280;18597;48.328;7.932;2022-10-03T11:45:01;100472.69;;;20.23;68.76
32083;BME280;18597;48.328;7.932;2022-10-03T11:47:55;100465.53;;;20.39;67.21
32083;BME280;18597;48.328;7.932;2022-10-03T11:50:50;100463.72;;;20.70;65.16
32083;BME280;18597;48.328;7.932;2022-10-03T11:53:40;100459.38;;;20.92;63.62
32083;BME280;18597;48.328;7.932;2022-10-03T11:56:45;100457.66;;;20.99;64.05
32083;BME280;18597;48.328;7.932;2022-10-03T11:59:32;100458.19;;;20.95;64.03
32083;BME280;18597;48.328;7.932;2022-10-03T12:02:19;100455.88;;;20.84;63.94
32083;BME280;18597;48.328;7.932;2022-10-03T12:05:05;100457.56;;;20.85;61.83
32083;BME280;18597;48.328;7.932;2022-10-03T12:17:34;100449.50;;;21.22;59.29
32083;BME280;18597;48.328;7.932;2022-10-03T12:20:17;100443.66;;;21.42;58.65
32083;BME280;18597;48.328;7.932;2022-10-03T12:22:50;100443.44;;;21.66;58.51
32083;BME280;18597;48.328;7.932;2022-10-03T12:25:40;100441.91;;;21.86;58.13
32083;BME280;18597;48.328;7.932;2022-10-03T12:28:20;100439.75;;;21.97;56.72
32083;BME280;18597;48.328;7.932;2022-10-03T12:31:00;100434.38;;;21.74;58.52
32083;BME280;18597;48.328;7.932;2022-10-03T12:34:07;100435.59;;;21.71;56.91
32083;BME280;18597;48.328;7.932;2022-10-03T12:40:10;100430.56;;;21.14;60.82
32083;BME280;18597;48.328;7.932;2022-10-03T12:48:45;100430.03;;;20.57;60.95
32083;BME280;18597;48.328;7.932;2022-10-03T12:57:53;100428.50;;;20.54;62.69
32083;BME280;18597;48.328;7.932;2022-10-03T13:00:52;100424.16;;;20.76;60.48
32083;BME280;18597;48.328;7.932;2022-10-03T13:03:52;100422.38;;;20.91;58.03
32083;BME280;18597;48.328;7.932;2022-10-03T13:07:12;100415.19;;;20.75;57.17
32083;BME280;18597;48.328;7.932;2022-10-03T13:12:52;100404.47;;;21.05;60.08
32083;BME280;18597;48.328;7.932;2022-10-03T13:18:54;100400.78;;;20.98;59.67
32083;BME280;18597;48.328;7.932;2022-10-03T13:24:50;100406.41;;;20.65;59.71
32083;BME280;18597;48.328;7.932;2022-10-03T13:30:28;100393.81;;;19.37;66.21
32083;BME280;18597;48.328;7.932;2022-10-03T13:35:42;100398.41;;;18.62;69.82
32083;BME280;18597;48.328;7.932;2022-10-03T13:39:23;100399.38;;;18.52;71.81
32083;BME280;18597;48.328;7.932;2022-10-03T13:44:54;100390.97;;;18.21;72.40
32083;BME280;18597;48.328;7.932;2022-10-03T13:47:52;100381.53;;;18.34;72.64
32083;BME280;18597;48.328;7.932;2022-10-03T13:50:37;100382.09;;;18.37;70.72
32083;BME280;18597;48.328;7.932;2022-10-03T13:55:50;100372.69;;;17.89;71.84
32083;BME280;18597;48.328;7.932;2022-10-03T13:58:44;100371.00;;;17.88;71.97
32083;BME280;18597;48.328;7.932;2022-10-03T14:01:58;100366.91;;;17.76;72.34
32083;BME280;18597;48.328;7.932;2022-10-03T14:11:35;100355.41;;;17.56;73.47
32083;BME280;18597;48.328;7.932;2022-10-03T14:14:17;100352.72;;;17.56;72.82
32083;BME280;18597;48.328;7.932;2022-10-03T14:20:21;100343.75;;;17.56;74.26
32083;BME280;18597;48.328;7.932;2022-10-03T14:23:29;100348.16;;;17.57;74.29
32083;BME280;18597;48.328;7.932;2022-10-03T14:26:10;100347.78;;;17.52;74.87
32083;BME280;18597;48.328;7.932;2022-10-03T14:29:02;100347.03;;;17.41;74.62
32083;BME280;18597;48.328;7.932;2022-10-03T14:34:50;100353.75;;;17.37;75.39
32083;BME280;18597;48.328;7.932;2022-10-03T14:37:47;100358.47;;;17.35;76.04
32083;BME280;18597;48.328;7.932;2022-10-03T14:43:20;100357.72;;;17.25;77.74
32083;BME280;18597;48.328;7.932;2022-10-03T14:45:53;100356.09;;;17.14;78.17
32083;BME280;18597;48.328;7.932;2022-10-03T14:48:36;100347.69;;;17.00;79.21
32083;BME280;18597;48.328;7.932;2022-10-03T14:51:22;100350.34;;;16.91;80.65
32083;BME280;18597;48.328;7.932;2022-10-03T14:53:56;100352.03;;;16.92;80.31
32083;BME280;18597;48.328;7.932;2022-10-03T14:56:30;100349.31;;;16.92;80.73
32083;BME280;18597;48.328;7.932;2022-10-03T14:59:02;100354.03;;;16.73;81.33
32083;BME280;18597;48.328;7.932;2022-10-03T15:01:35;100355.31;;;16.69;81.80
32083;BME280;18597;48.328;7.932;2022-10-03T15:04:10;100347.13;;;16.60;82.03
32083;BME280;18597;48.328;7.932;2022-10-03T15:06:51;100342.66;;;16.51;83.65
32083;BME280;18597;48.328;7.932;2022-10-03T15:12:25;100338.78;;;16.36;84.04
32083;BME280;18597;48.328;7.932;2022-10-03T15:15:00;100337.47;;;16.40;83.66
32083;BME280;18597;48.328;7.932;2022-10-03T15:17:34;100334.63;;;16.42;84.34
32083;BME280;18597;48.328;7.932;2022-10-03T15:20:03;100350.84;;;16.32;84.34
32083;BME280;18597;48.328;7.932;2022-10-03T15:22:34;100346.41;;;16.41;84.75
32083;BME280;18597;48.328;7.932;2022-10-03T15:25:17;100339.78;;;16.35;84.03
32083;BME280;18597;48.328;7.932;2022-10-03T15:27:48;100337.84;;;16.27;83.93
32083;BME280;18597;48.328;7.932;2022-10-03T15:30:35;100338.59;;;16.20;85.21
32083;BME280;18597;48.328;7.932;2022-10-03T15:33:30;100348.97;;;16.15;85.87
32083;BME280;18597;48.328;7.932;2022-10-03T15:36:22;100345.13;;;16.17;86.24
32083;BME280;18597;48.328;7.932;2022-10-03T15:38:57;100350.97;;;16.13;85.09
32083;BME280;18597;48.328;7.932;2022-10-03T15:41:36;100343.03;;;16.11;86.06
32083;BME280;18597;48.328;7.932;2022-10-03T15:44:27;100342.94;;;16.03;86.37
32083;BME280;18597;48.328;7.932;2022-10-03T15:47:05;100337.13;;;15.98;85.76
32083;BME280;18597;48.328;7.932;2022-10-03T15:49:43;100336.28;;;15.97;87.11
32083;BME280;18597;48.328;7.932;2022-10-03T15:52:24;100341.38;;;16.00;87.85
32083;BME280;18597;48.328;7.932;2022-10-03T15:54:57;100333.53;;;15.79;87.96
32083;BME280;18597;48.328;7.932;2022-10-03T15:57:36;100339.94;;;15.69;89.30
32083;BME280;18597;48.328;7.932;2022-10-03T16:00:05;100333.00;;;15.66;93.09
32083;BME280;18597;48.328;7.932;2022-10-03T16:02:38;100334.38;;;15.70;97.81
32083;BME280;18597;48.328;7.932;2022-10-03T16:05:15;100320.81;;;15.52;95.85
32083;BME280;18597;48.328;7.932;2022-10-03T16:08:07;100322.81;;;15.50;92.19
32083;BME280;18597;48.328;7.932;2022-10-03T16:10:40;100315.16;;;15.65;94.86
32083;BME280;18597;48.328;7.932;2022-10-03T16:13:40;100319.41;;;15.48;98.19
32083;BME280;18597;48.328;7.932;2022-10-03T16:16:24;100320.59;;;15.26;100.00
32083;BME280;18597;48.328;7.932;2022-10-03T16:19:37;100331.38;;;14.88;100.00
32083;BME280;18597;48.328;7.932;2022-10-03T16:23:08;100337.91;;;14.76;100.00
32083;BME280;18597;48.328;7.932;2022-10-03T16:25:21;100347.09;;;14.63;100.00
32083;BME280;18597;48.328;7.932;2022-10-03T16:28:09;100350.47;;;14.56;100.00
32083;BME280;18597;48.328;7.932;2022-10-03T16:30:42;100352.41;;;14.44;100.00
32083;BME280;18597;48.328;7.932;2022-10-03T16:33:19;100344.31;;;14.34;100.00
32083;BME280;18597;48.328;7.932;2022-10-03T16:36:07;100354.59;;;14.20;100.00
32083;BME280;18597;48.328;7.932;2022-10-03T16:38:42;100347.78;;;14.06;100.00
32083;BME280;18597;48.328;7.932;2022-10-03T16:41:22;100353.06;;;13.86;100.00
32083;BME280;18597;48.328;7.932;2022-10-03T16:44:16;100347.34;;;13.70;100.00
32083;BME280;18597;48.328;7.932;2022-10-03T16:46:44;100348.25;;;13.59;100.00
32083;BME280;18597;48.328;7.932;2022-10-03T16:52:03;100349.06;;;13.50;100.00
32083;BME280;18597;48.328;7.932;2022-10-03T16:54:34;100349.59;;;13.44;100.00
32083;BME280;18597;48.328;7.932;2022-10-03T16:57:07;100354.63;;;13.17;100.00
32083;BME280;18597;48.328;7.932;2022-10-03T16:59:37;100354.84;;;12.93;100.00
32083;BME280;18597;48.328;7.932;2022-10-03T17:02:12;100357.50;;;12.72;100.00
32083;BME280;18597;48.328;7.932;2022-10-03T17:04:44;100354.09;;;12.70;100.00
32083;BME280;18597;48.328;7.932;2022-10-03T17:07:20;100354.81;;;12.61;100.00
32083;BME280;18597;48.328;7.932;2022-10-03T17:09:57;100360.09;;;12.51;100.00
32083;BME280;18597;48.328;7.932;2022-10-03T17:12:33;100351.25;;;12.28;100.00
32083;BME280;18597;48.328;7.932;2022-10-03T17:15:22;100344.06;;;12.29;100.00
32083;BME280;18597;48.328;7.932;2022-10-03T17:17:58;100349.78;;;12.35;100.00
32083;BME280;18597;48.328;7.932;2022-10-03T17:23:37;100348.63;;;11.94;100.00
32083;BME280;18597;48.328;7.932;2022-10-03T17:26:22;100346.91;;;11.93;100.00
32083;BME280;18597;48.328;7.932;2022-10-03T17:29:01;100347.78;;;11.83;100.00
32083;BME280;18597;48.328;7.932;2022-10-03T17:34:39;100349.94;;;11.66;100.00
32083;BME280;18597;48.328;7.932;2022-10-03T17:41:23;100340.94;;;11.56;100.00
32083;BME280;18597;48.328;7.932;2022-10-03T17:43:55;100342.13;;;11.52;100.00
32083;BME280;18597;48.328;7.932;2022-10-03T17:46:42;100351.00;;;11.42;100.00
32083;BME280;18597;48.328;7.932;2022-10-03T17:51:50;100359.44;;;11.13;100.00
32083;BME280;18597;48.328;7.932;2022-10-03T17:54:35;100356.31;;;11.19;100.00
32083;BME280;18597;48.328;7.932;2022-10-03T17:57:38;100359.72;;;11.32;100.00
32083;BME280;18597;48.328;7.932;2022-10-03T18:00:18;100353.50;;;11.32;100.00
32083;BME280;18597;48.328;7.932;2022-10-03T18:03:07;100367.00;;;11.30;100.00
32083;BME280;18597;48.328;7.932;2022-10-03T18:05:43;100356.13;;;11.09;100.00
32083;BME280;18597;48.328;7.932;2022-10-03T18:08:22;100361.44;;;10.98;100.00
32083;BME280;18597;48.328;7.932;2022-10-03T18:10:54;100366.91;;;10.97;100.00
32083;BME280;18597;48.328;7.932;2022-10-03T18:13:35;100364.47;;;10.94;100.00
32083;BME280;18597;48.328;7.932;2022-10-03T18:16:33;100357.81;;;10.99;100.00
32083;BME280;18597;48.328;7.932;2022-10-03T18:19:44;100367.38;;;10.91;100.00
32083;BME280;18597;48.328;7.932;2022-10-03T18:22:20;100359.28;;;10.79;100.00
32083;BME280;18597;48.328;7.932;2022-10-03T18:25:20;100346.97;;;10.90;100.00
32083;BME280;18597;48.328;7.932;2022-10-03T18:28:27;100340.84;;;10.88;100.00
32083;BME280;18597;48.328;7.932;2022-10-03T18:31:14;100342.00;;;10.72;100.00
32083;BME280;18597;48.328;7.932;2022-10-03T18:33:54;100357.38;;;10.57;100.00
32083;BME280;18597;48.328;7.932;2022-10-03T18:36:32;100349.88;;;10.39;100.00
32083;BME280;18597;48.328;7.932;2022-10-03T18:39:13;100360.50;;;10.75;100.00
32083;BME280;18597;48.328;7.932;2022-10-03T18:41:46;100358.03;;;10.72;100.00
32083;BME280;18597;48.328;7.932;2022-10-03T18:44:18;100351.69;;;10.62;100.00
32083;BME280;18597;48.328;7.932;2022-10-03T18:46:45;100354.31;;;10.51;100.00
32083;BME280;18597;48.328;7.932;2022-10-03T18:49:33;100350.84;;;10.38;100.00
32083;BME280;18597;48.328;7.932;2022-10-03T18:55:01;100373.94;;;10.26;100.00
32083;BME280;18597;48.328;7.932;2022-10-03T18:57:55;100384.94;;;10.21;100.00
32083;BME280;18597;48.328;7.932;2022-10-03T19:00:28;100363.03;;;10.16;100.00
32083;BME280;18597;48.328;7.932;2022-10-03T19:03:20;100345.03;;;10.07;100.00
32083;BME280;18597;48.328;7.932;2022-10-03T19:05:56;100344.50;;;10.02;100.00
32083;BME280;18597;48.328;7.932;2022-10-03T19:08:29;100349.84;;;10.02;100.00
32083;BME280;18597;48.328;7.932;2022-10-03T19:11:14;100351.94;;;10.10;100.00
32083;BME280;18597;48.328;7.932;2022-10-03T19:14:07;100348.00;;;10.02;100.00
32083;BME280;18597;48.328;7.932;2022-10-03T19:19:55;100338.53;;;9.98;100.00
32083;BME280;18597;48.328;7.932;2022-10-03T19:25:37;100334.41;;;10.18;100.00
32083;BME280;18597;48.328;7.932;2022-10-03T19:28:43;100335.00;;;9.98;100.00
32083;BME280;18597;48.328;7.932;2022-10-03T19:31:44;100339.81;;;9.93;100.00
32083;BME280;18597;48.328;7.932;2022-10-03T19:34:38;100346.31;;;9.89;100.00
32083;BME280;18597;48.328;7.932;2022-10-03T19:37:15;100347.81;;;9.93;100.00
32083;BME280;18597;48.328;7.932;2022-10-03T19:39:42;100343.03;;;9.85;100.00
32083;BME280;18597;48.328;7.932;2022-10-03T19:42:24;100345.59;;;9.87;100.00
32083;BME280;18597;48.328;7.932;2022-10-03T19:44:57;100350.56;;;10.04;100.00
32083;BME280;18597;48.328;7.932;2022-10-03T19:47:32;100351.03;;;9.98;100.00
32083;BME280;18597;48.328;7.932;2022-10-03T19:50:23;100348.19;;;10.12;100.00
32083;BME280;18597;48.328;7.932;2022-10-03T19:52:52;100355.16;;;10.15;100.00
32083;BME280;18597;48.328;7.932;2022-10-03T19:55:23;100349.28;;;10.10;100.00
32083;BME280;18597;48.328;7.932;2022-10-03T19:57:58;100345.63;;;10.11;100.00
32083;BME280;18597;48.328;7.932;2022-10-03T20:00:31;100342.97;;;10.11;100.00
32083;BME280;18597;48.328;7.932;2022-10-03T20:03:18;100330.38;;;10.13;100.00
32083;BME280;18597;48.328;7.932;2022-10-03T20:06:49;100337.75;;;10.09;100.00
32083;BME280;18597;48.328;7.932;2022-10-03T20:09:23;100342.97;;;10.11;100.00
32083;BME280;18597;48.328;7.932;2022-10-03T20:12:09;100340.84;;;10.03;100.00
32083;BME280;18597;48.328;7.932;2022-10-03T20:14:40;100336.84;;;9.97;100.00
32083;BME280;18597;48.328;7.932;2022-10-03T20:17:14;100338.31;;;9.89;100.00
32083;BME280;18597;48.328;7.932;2022-10-03T20:20:08;100342.38;;;9.82;100.00
32083;BME280;18597;48.328;7.932;2022-10-03T20:22:42;100338.78;;;9.70;100.00
32083;BME280;18597;48.328;7.932;2022-10-03T20:25:24;100334.41;;;9.69;100.00
32083;BME280;18597;48.328;7.932;2022-10-03T20:27:54;100329.09;;;9.69;100.00
32083;BME280;18597;48.328;7.932;2022-10-03T20:30:32;100328.19;;;9.81;100.00
32083;BME280;18597;48.328;7.932;2022-10-03T20:33:00;100326.91;;;9.74;100.00
32083;BME280;18597;48.328;7.932;2022-10-03T20:35:50;100330.66;;;9.71;100.00
32083;BME280;18597;48.328;7.932;2022-10-03T20:38:47;100323.44;;;9.61;100.00
32083;BME280;18597;48.328;7.932;2022-10-03T20:44:53;100318.84;;;9.50;100.00
32083;BME280;18597;48.328;7.932;2022-10-03T20:50:46;100317.13;;;9.49;100.00
32083;BME280;18597;48.328;7.932;2022-10-03T20:53:22;100321.19;;;9.42;100.00
32083;BME280;18597;48.328;7.932;2022-10-03T20:55:56;100319.81;;;9.24;100.00
32083;BME280;18597;48.328;7.932;2022-10-03T20:58:46;100318.84;;;9.25;100.00
32083;BME280;18597;48.328;7.932;2022-10-03T21:01:18;100319.69;;;9.25;100.00
32083;BME280;18597;48.328;7.932;2022-10-03T21:06:46;100318.97;;;9.23;100.00
32083;BME280;18597;48.328;7.932;2022-10-03T21:09:30;100310.94;;;9.10;100.00
32083;BME280;18597;48.328;7.932;2022-10-03T21:11:58;100305.50;;;9.25;100.00
32083;BME280;18597;48.328;7.932;2022-10-03T21:14:27;100302.00;;;9.24;100.00
32083;BME280;18597;48.328;7.932;2022-10-03T21:16:57;100308.19;;;9.25;100.00
32083;BME280;18597;48.328;7.932;2022-10-03T21:19:46;100314.03;;;9.17;100.00
32083;BME280;18597;48.328;7.932;2022-10-03T21:22:20;100299.00;;;9.16;100.00
32083;BME280;18597;48.328;7.932;2022-10-03T21:27:31;100295.50;;;9.15;100.00
32083;BME280;18597;48.328;7.932;2022-10-03T21:30:14;100293.69;;;9.16;100.00
32083;BME280;18597;48.328;7.932;2022-10-03T21:33:04;100302.94;;;9.10;100.00
32083;BME280;18597;48.328;7.932;2022-10-03T21:35:39;100301.25;;;9.09;100.00
32083;BME280;18597;48.328;7.932;2022-10-03T21:38:26;100302.50;;;9.04;100.00
32083;BME280;18597;48.328;7.932;2022-10-03T21:44:02;100300.88;;;8.88;100.00
32083;BME280;18597;48.328;7.932;2022-10-03T21:46:56;100289.94;;;8.93;100.00
32083;BME280;18597;48.328;7.932;2022-10-03T21:49:57;100285.75;;;8.89;100.00
32083;BME280;18597;48.328;7.932;2022-10-03T21:53:09;100288.75;;;8.97;100.00
32083;BME280;18597;48.328;7.932;2022-10-03T21:59:04;100284.06;;;9.01;100.00
32083;BME280;18597;48.328;7.932;2022-10-03T22:01:55;100287.78;;;8.98;100.00
32083;BME280;18597;48.328;7.932;2022-10-03T22:04:33;100282.78;;;8.94;100.00
32083;BME280;18597;48.328;7.932;2022-10-03T22:07:15;100281.28;;;9.02;100.00
32083;BME280;18597;48.328;7.932;2022-10-03T22:09:53;100281.81;;;8.95;100.00
32083;BME280;18597;48.328;7.932;2022-10-03T22:12:21;100269.03;;;9.00;100.00
32083;BME280;18597;48.328;7.932;2022-10-03T22:15:10;100266.25;;;9.01;100.00
32083;BME280;18597;48.328;7.932;2022-10-03T22:18:01;100259.94;;;8.89;100.00
32083;BME280;18597;48.328;7.932;2022-10-03T22:20:30;100260.06;;;8.88;100.00
32083;BME280;18597;48.328;7.932;2022-10-03T22:32:11;100271.94;;;8.57;100.00
32083;BME280;18597;48.328;7.932;2022-10-03T22:34:57;100261.53;;;8.67;100.00